TimeCDT,TemperatureF,Dew PointF,Humidity,Sea Level PressureIn,VisibilityMPH,Wind Direction,Wind SpeedMPH,Gust SpeedMPH,PrecipitationIn,Events,Conditions,WindDirDegrees,DateUTC
12:53 AM,53.1,35.1,50,29.85,10.0,SW,9.2,18.4,N/A,,Clear,230,2012-10-09 05:53:00
1:53 AM,48.9,35.1,59,29.86,10.0,SSW,5.8,-,N/A,,Clear,200,2012-10-09 06:53:00
3:53 AM,50.0,35.1,57,29.81,10.0,SSW,9.2,-,N/A,,Clear,200,2012-10-09 08:53:00
4:53 AM,50.0,36.0,59,29.80,10.0,SSW,9.2,-,N/A,,Mostly Cloudy,200,2012-10-09 09:53:00
5:53 AM,50.0,36.0,59,29.80,10.0,SSW,8.1,-,N/A,,Clear,200,2012-10-09 10:53:00
6:53 AM,48.9,36.0,61,29.82,10.0,SW,5.8,-,N/A,,Clear,220,2012-10-09 11:53:00
7:53 AM,48.0,37.0,66,29.83,10.0,WSW,8.1,-,N/A,,Clear,240,2012-10-09 12:53:00
8:53 AM,51.1,37.0,59,29.83,10.0,SW,8.1,-,N/A,,Clear,230,2012-10-09 13:53:00
9:53 AM,54.0,37.9,55,29.85,10.0,West,13.8,-,N/A,,Clear,260,2012-10-09 14:53:00
10:53 AM,55.9,41.0,57,29.84,10.0,WNW,10.4,-,N/A,,Clear,290,2012-10-09 15:53:00
11:53 AM,59.0,43.0,55,29.85,10.0,NW,20.7,27.6,N/A,,Clear,320,2012-10-09 16:53:00
12:53 PM,50.0,39.9,68,29.89,10.0,NW,24.2,32.2,N/A,,Unknown,320,2012-10-09 17:53:00
1:53 PM,48.0,41.0,77,29.91,10.0,NW,16.1,-,N/A,,Overcast,320,2012-10-09 18:53:00
2:13 PM,48.2,42.8,82,29.91,10.0,WNW,11.5,-,0.00,Rain,Light Rain,300,2012-10-09 19:13:00
2:44 PM,46.4,44.6,93,29.91,4.0,WNW,9.2,-,0.03,Rain,Rain,290,2012-10-09 19:44:00
2:53 PM,46.0,44.1,93,29.93,4.0,WNW,17.3,23.0,0.04,Rain,Rain,300,2012-10-09 19:53:00
3:06 PM,44.6,41.0,87,29.92,4.0,WNW,10.4,-,0.03,Rain,Rain,300,2012-10-09 20:06:00
3:53 PM,45.0,42.1,90,29.93,10.0,SW,9.2,-,0.07,,Overcast,230,2012-10-09 20:53:00
4:53 PM,46.0,42.1,86,29.93,10.0,WSW,8.1,-,N/A,,Overcast,240,2012-10-09 21:53:00
5:53 PM,46.9,42.1,83,29.94,10.0,West,8.1,-,N/A,,Clear,270,2012-10-09 22:53:00
6:53 PM,43.0,37.0,80,29.95,10.0,West,6.9,-,N/A,,Clear,270,2012-10-09 23:53:00
7:53 PM,44.1,37.0,76,29.99,10.0,WNW,9.2,-,N/A,,Unknown,300,2012-10-10 00:53:00
8:53 PM,39.0,33.1,79,30.01,10.0,WNW,6.9,-,N/A,,Unknown,290,2012-10-10 01:53:00
9:53 PM,42.1,34.0,73,30.04,10.0,NW,12.7,-,N/A,,Overcast,320,2012-10-10 02:53:00
10:53 PM,37.9,30.9,76,30.06,-9999.0,NW,9.2,-,N/A,,Clear,320,2012-10-10 03:53:00
11:53 PM,35.1,28.9,78,30.07,-9999.0,West,5.8,-,N/A,,Clear,280,2012-10-10 04:53:00